Time;durP1;ratioP1;P1;durP2;ratioP2;P2;SDS_P1;SDS_P2;PMS_P1;PMS_P2;Temp;Humidity;BMP_temperature;BMP_pressure;BME280_temperature;BME280_humidity;BME280_pressure;Samples;Min_cycle;Max_cycle;Signal;HPM_P1;HPM_P2
2021/08/17 00:26:04;;;;;;;4.78;1.90;;;;;;;;;;5075119;28;20052;-59
2021/08/17 00:28:29;;;;;;;5.18;1.98;;;;;;;;;;5082810;28;20040;-59
2021/08/17 00:30:55;;;;;;;3.63;1.25;;;;;;;;;;5081675;28;20069;-59
2021/08/17 00:33:20;;;;;;;4.82;1.60;;;;;;;;;;5114485;28;20023;-60
2021/08/17 00:35:45;;;;;;;5.25;1.77;;;;;;;;;;5105550;28;20016;-60
2021/08/17 00:38:10;;;;;;;4.43;1.90;;;;;;;;;;5093591;28;20465;-59
2021/08/17 00:40:36;;;;;;;3.25;0.98;;;;;;;;;;5093929;28;20028;-59
2021/08/17 00:43:01;;;;;;;6.65;2.22;;;;;;;;;;5094126;28;20462;-59
2021/08/17 00:45:27;;;;;;;3.70;1.60;;;;;;;;;;5093414;28;20027;-60
2021/08/17 00:47:53;;;;;;;3.72;1.30;;;;;;;;;;5093877;28;20024;-59
2021/08/17 00:50:20;;;;;;;3.10;1.35;;;;;;;;;;5093654;28;20504;-59
2021/08/17 00:52:45;;;;;;;4.25;1.60;;;;;;;;;;5093384;28;20490;-60
2021/08/17 00:55:11;;;;;;;4.80;1.90;;;;;;;;;;5093580;28;20054;-60
2021/08/17 00:57:38;;;;;;;6.07;1.90;;;;;;;;;;5093501;28;20016;-60
2021/08/17 01:00:06;;;;;;;5.22;1.83;;;;;;;;;;5075196;28;20016;-60
2021/08/17 01:02:32;;;;;;;4.82;1.67;;;;;;;;;;5093369;28;20028;-60
2021/08/17 01:04:57;;;;;;;6.07;1.90;;;;;;;;;;5093202;28;20023;-59
2021/08/17 01:07:23;;;;;;;3.47;2.03;;;;;;;;;;5093421;28;20020;-59
2021/08/17 01:09:48;;;;;;;4.53;1.92;;;;;;;;;;5093138;28;20016;-59
2021/08/17 01:12:13;;;;;;;8.98;1.77;;;;;;;;;;5093330;28;20024;-60
2021/08/17 01:14:38;;;;;;;7.88;1.60;;;;;;;;;;5074965;28;20016;-59
2021/08/17 01:17:03;;;;;;;1.90;1.13;;;;;;;;;;5093090;28;20034;-59
2021/08/17 01:19:29;;;;;;;4.97;2.30;;;;;;;;;;5092611;28;20020;-59
2021/08/17 01:21:54;;;;;;;2.30;0.93;;;;;;;;;;5093052;28;20027;-60
2021/08/17 01:24:19;;;;;;;4.95;2.50;;;;;;;;;;5093003;28;20023;-59
2021/08/17 01:26:45;;;;;;;5.60;1.90;;;;;;;;;;5092833;28;20047;-59
2021/08/17 01:29:11;;;;;;;5.53;2.25;;;;;;;;;;5092399;28;20047;-58
2021/08/17 01:31:37;;;;;;;5.38;2.38;;;;;;;;;;5093280;28;20118;-60
2021/08/17 01:34:02;;;;;;;6.90;2.00;;;;;;;;;;5092880;28;20027;-59
2021/08/17 01:36:28;;;;;;;4.20;1.75;;;;;;;;;;5092439;28;20028;-60
2021/08/17 01:38:53;;;;;;;6.93;2.90;;;;;;;;;;5093203;28;20024;-60
2021/08/17 01:41:18;;;;;;;7.75;3.60;;;;;;;;;;5092538;28;20478;-59
2021/08/17 01:43:44;;;;;;;4.70;2.72;;;;;;;;;;5092735;28;20028;-59
2021/08/17 01:46:10;;;;;;;3.67;2.03;;;;;;;;;;5092491;28;20046;-59
2021/08/17 01:48:35;;;;;;;5.32;2.60;;;;;;;;;;5092629;28;20028;-60
2021/08/17 01:51:01;;;;;;;5.70;2.88;;;;;;;;;;5074418;28;20111;-60
2021/08/17 01:53:27;;;;;;;5.15;2.35;;;;;;;;;;5092716;28;20028;-60
2021/08/17 01:55:52;;;;;;;4.63;2.88;;;;;;;;;;5092334;28;20016;-59
2021/08/17 01:58:17;;;;;;;6.43;2.53;;;;;;;;;;5092067;28;20073;-59
2021/08/17 02:00:43;;;;;;;5.55;2.63;;;;;;;;;;5092253;28;20066;-60
2021/08/17 02:03:09;;;;;;;6.05;2.25;;;;;;;;;;5092483;28;20471;-59
2021/08/17 02:05:34;;;;;;;2.85;1.23;;;;;;;;;;5092407;28;20028;-59
2021/08/17 02:08:01;;;;;;;8.15;3.47;;;;;;;;;;5091080;28;20031;-59
2021/08/17 02:10:27;;;;;;;3.83;1.88;;;;;;;;;;5092487;28;20346;-59
2021/08/17 02:12:52;;;;;;;3.88;2.35;;;;;;;;;;5073536;28;20106;-60
2021/08/17 02:15:17;;;;;;;6.10;2.45;;;;;;;;;;5091779;28;20031;-60
2021/08/17 02:17:42;;;;;;;6.20;2.90;;;;;;;;;;5092233;28;20016;-60
2021/08/17 02:20:08;;;;;;;2.28;1.33;;;;;;;;;;5092251;28;20027;-60
2021/08/17 02:22:33;;;;;;;5.68;2.22;;;;;;;;;;5092436;28;20039;-59
2021/08/17 02:24:58;;;;;;;3.58;1.40;;;;;;;;;;5092182;28;20466;-59
2021/08/17 02:27:23;;;;;;;3.17;1.30;;;;;;;;;;5091324;28;20059;-59
2021/08/17 02:29:48;;;;;;;4.85;2.38;;;;;;;;;;5091845;28;20020;-60
2021/08/17 02:32:14;;;;;;;4.65;2.90;;;;;;;;;;5074173;28;20024;-60
2021/08/17 02:34:39;;;;;;;7.95;2.55;;;;;;;;;;5092013;28;20048;-59
2021/08/17 02:37:04;;;;;;;4.55;2.78;;;;;;;;;;5092162;28;20067;-60
2021/08/17 02:39:29;;;;;;;4.95;1.95;;;;;;;;;;5092088;28;20155;-59
2021/08/17 02:41:55;;;;;;;5.82;2.85;;;;;;;;;;5073679;28;20492;-59
2021/08/17 02:44:20;;;;;;;4.55;2.50;;;;;;;;;;5091148;28;20470;-59
2021/08/17 02:46:45;;;;;;;4.70;2.67;;;;;;;;;;5092047;28;20042;-60
2021/08/17 02:49:10;;;;;;;4.80;1.25;;;;;;;;;;5091922;28;20107;-60
2021/08/17 02:51:35;;;;;;;3.72;2.33;;;;;;;;;;5092101;28;20381;-60
2021/08/17 02:54:01;;;;;;;3.95;2.40;;;;;;;;;;5091981;28;20027;-60
2021/08/17 02:56:26;;;;;;;4.53;2.15;;;;;;;;;;5091522;28;20020;-59
2021/08/17 02:58:51;;;;;;;2.00;1.80;;;;;;;;;;5091629;28;20047;-59
2021/08/17 03:01:16;;;;;;;2.13;0.93;;;;;;;;;;5091635;28;20407;-59
2021/08/17 03:03:41;;;;;;;6.60;3.05;;;;;;;;;;5092137;28;20012;-60
2021/08/17 03:06:07;;;;;;;4.40;2.30;;;;;;;;;;5091593;28;20020;-59
2021/08/17 03:08:32;;;;;;;6.07;2.38;;;;;;;;;;5091802;28;20123;-59
2021/08/17 03:10:57;;;;;;;7.70;2.47;;;;;;;;;;5094092;28;20058;-60
2021/08/17 03:13:22;;;;;;;5.75;2.80;;;;;;;;;;5095552;28;20406;-59
2021/08/17 03:15:48;;;;;;;3.78;1.60;;;;;;;;;;5095255;28;20474;-58
2021/08/17 03:18:13;;;;;;;5.80;2.65;;;;;;;;;;5077345;28;20043;-59
2021/08/17 03:20:38;;;;;;;6.65;2.80;;;;;;;;;;5077201;28;20083;-59
2021/08/17 03:23:04;;;;;;;4.63;2.30;;;;;;;;;;5095185;28;20020;-59
2021/08/17 03:25:29;;;;;;;5.72;2.60;;;;;;;;;;5094338;28;20070;-58
2021/08/17 03:27:55;;;;;;;3.47;1.73;;;;;;;;;;5095079;28;20068;-58
2021/08/17 03:30:21;;;;;;;4.50;2.78;;;;;;;;;;5094927;28;20103;-59
2021/08/17 03:32:47;;;;;;;3.83;1.42;;;;;;;;;;5095057;28;20024;-59
2021/08/17 03:35:12;;;;;;;4.70;2.00;;;;;;;;;;5094798;28;20024;-59
2021/08/17 03:37:38;;;;;;;4.72;2.38;;;;;;;;;;5095194;28;20093;-60
2021/08/17 03:40:05;;;;;;;4.82;2.30;;;;;;;;;;5094818;28;20032;-59
2021/08/17 03:42:30;;;;;;;2.83;1.65;;;;;;;;;;5095047;28;20024;-58
2021/08/17 03:44:56;;;;;;;4.53;2.40;;;;;;;;;;5094365;28;20389;-61
2021/08/17 03:47:21;;;;;;;5.25;2.35;;;;;;;;;;5095019;28;20072;-59
2021/08/17 03:49:47;;;;;;;4.50;2.35;;;;;;;;;;5094708;28;20343;-59
2021/08/17 03:52:12;;;;;;;5.57;2.20;;;;;;;;;;5095137;28;20047;-59
2021/08/17 03:54:37;;;;;;;3.97;2.20;;;;;;;;;;5094926;28;20102;-59
2021/08/17 03:57:02;;;;;;;2.08;1.30;;;;;;;;;;5094763;28;20073;-59
2021/08/17 03:59:28;;;;;;;5.03;1.25;;;;;;;;;;5094738;28;20031;-59
2021/08/17 04:01:53;;;;;;;3.90;1.83;;;;;;;;;;5094923;28;20439;-60
2021/08/17 04:04:18;;;;;;;2.75;1.38;;;;;;;;;;5094530;28;20027;-57
2021/08/17 04:06:43;;;;;;;3.03;1.88;;;;;;;;;;5094390;28;20031;-59
2021/08/17 04:09:08;;;;;;;4.55;1.75;;;;;;;;;;5094561;28;20110;-59
2021/08/17 04:11:34;;;;;;;2.63;1.48;;;;;;;;;;5094270;28;20024;-59
2021/08/17 04:13:59;;;;;;;3.03;0.70;;;;;;;;;;5094365;28;20089;-60
2021/08/17 04:16:24;;;;;;;1.65;0.88;;;;;;;;;;5083322;28;20414;-60
2021/08/17 04:18:49;;;;;;;5.15;2.03;;;;;;;;;;5074204;28;20028;-59
2021/08/17 04:21:14;;;;;;;7.78;1.95;;;;;;;;;;5075317;28;20033;-59
2021/08/17 04:23:40;;;;;;;5.60;1.80;;;;;;;;;;5094247;28;20027;-59
2021/08/17 04:26:05;;;;;;;1.75;0.95;;;;;;;;;;5094301;28;20066;-60
2021/08/17 04:28:32;;;;;;;4.95;1.40;;;;;;;;;;5093449;28;20046;-60
2021/08/17 04:30:57;;;;;;;3.15;2.20;;;;;;;;;;5094077;28;20024;-60
2021/08/17 04:33:22;;;;;;;4.07;2.50;;;;;;;;;;5093809;28;20032;-60
2021/08/17 04:35:47;;;;;;;4.03;1.45;;;;;;;;;;5093569;28;20024;-60
2021/08/17 04:38:13;;;;;;;3.92;2.15;;;;;;;;;;5094074;28;20024;-59
2021/08/17 04:40:38;;;;;;;2.38;1.48;;;;;;;;;;5093723;28;20070;-59
2021/08/17 04:43:03;;;;;;;4.53;0.82;;;;;;;;;;5094512;28;20020;-60
2021/08/17 04:45:28;;;;;;;4.38;1.27;;;;;;;;;;5092734;28;20070;-59
2021/08/17 04:47:53;;;;;;;5.18;1.45;;;;;;;;;;5088356;28;20012;-60
2021/08/17 04:50:20;;;;;;;5.18;1.90;;;;;;;;;;5093729;28;20071;-59
2021/08/17 04:52:45;;;;;;;3.70;1.30;;;;;;;;;;5093999;28;20020;-59
2021/08/17 04:55:11;;;;;;;3.53;1.20;;;;;;;;;;5093453;28;20023;-60
2021/08/17 04:57:49;;;;;;;4.75;1.63;;;;;;;;;;5093524;28;20099;-60
2021/08/17 05:00:15;;;;;;;3.13;2.15;;;;;;;;;;5092986;28;20039;-59
2021/08/17 05:02:40;;;;;;;4.47;2.25;;;;;;;;;;5093435;28;20016;-59
2021/08/17 05:05:05;;;;;;;4.00;1.50;;;;;;;;;;5092720;28;20026;-59
2021/08/17 05:07:30;;;;;;;5.55;2.72;;;;;;;;;;5093243;28;20374;-60
2021/08/17 05:09:55;;;;;;;3.67;1.60;;;;;;;;;;5092913;28;20020;-59
2021/08/17 05:12:21;;;;;;;4.05;2.17;;;;;;;;;;5093128;28;20497;-59
2021/08/17 05:14:46;;;;;;;2.58;1.55;;;;;;;;;;5092465;28;20158;-59
2021/08/17 05:17:11;;;;;;;3.20;1.98;;;;;;;;;;5093113;28;20016;-59
2021/08/17 05:19:36;;;;;;;2.00;1.33;;;;;;;;;;5092966;28;20019;-59
2021/08/17 05:22:01;;;;;;;6.05;1.92;;;;;;;;;;5092868;28;20020;-59
2021/08/17 05:24:27;;;;;;;4.90;2.30;;;;;;;;;;5093081;28;20470;-60
2021/08/17 05:26:52;;;;;;;3.17;0.88;;;;;;;;;;5087019;28;20070;-60
2021/08/17 05:29:17;;;;;;;5.32;1.50;;;;;;;;;;5092173;28;20375;-59
2021/08/17 05:31:42;;;;;;;3.67;1.77;;;;;;;;;;5092107;28;20478;-59
2021/08/17 05:34:07;;;;;;;4.53;1.98;;;;;;;;;;5086703;28;20051;-59
2021/08/17 05:36:33;;;;;;;2.50;1.73;;;;;;;;;;5092157;28;20030;-59
2021/08/17 05:38:58;;;;;;;4.43;1.60;;;;;;;;;;5092348;28;20505;-61
2021/08/17 05:41:23;;;;;;;2.67;1.95;;;;;;;;;;5092339;28;20031;-60
2021/08/17 05:43:48;;;;;;;6.75;2.38;;;;;;;;;;5091744;28;20020;-60
2021/08/17 05:46:13;;;;;;;5.53;1.90;;;;;;;;;;5087488;28;20036;-60
2021/08/17 05:48:39;;;;;;;5.43;2.13;;;;;;;;;;5092374;28;20059;-60
2021/08/17 05:51:04;;;;;;;5.25;2.15;;;;;;;;;;5092432;28;20101;-60
2021/08/17 05:53:30;;;;;;;4.57;1.58;;;;;;;;;;5092323;28;20048;-59
2021/08/17 05:55:55;;;;;;;2.65;1.75;;;;;;;;;;5092204;28;20024;-60
2021/08/17 05:58:20;;;;;;;2.97;1.50;;;;;;;;;;5092056;28;20122;-59
2021/08/17 06:00:45;;;;;;;3.03;1.80;;;;;;;;;;5090677;28;20115;-60
2021/08/17 06:03:11;;;;;;;4.85;2.42;;;;;;;;;;5073823;28;20023;-60
2021/08/17 06:05:36;;;;;;;3.78;2.03;;;;;;;;;;5092187;28;20023;-60
2021/08/17 06:08:01;;;;;;;3.85;1.83;;;;;;;;;;5092167;28;20023;-60
2021/08/17 06:10:26;;;;;;;5.20;1.88;;;;;;;;;;5091881;28;20175;-60
2021/08/17 06:12:52;;;;;;;3.03;1.52;;;;;;;;;;5092198;28;20386;-60
2021/08/17 06:15:17;;;;;;;3.75;1.67;;;;;;;;;;5092052;28;20028;-60
2021/08/17 06:17:43;;;;;;;3.17;1.70;;;;;;;;;;5091903;28;20023;-60
2021/08/17 06:20:08;;;;;;;4.38;2.13;;;;;;;;;;5092151;28;20093;-59
2021/08/17 06:22:34;;;;;;;5.00;1.45;;;;;;;;;;5091857;28;20024;-59
2021/08/17 06:24:59;;;;;;;0.98;0.77;;;;;;;;;;5091925;28;20035;-58
2021/08/17 06:27:24;;;;;;;3.75;1.95;;;;;;;;;;5091613;28;20044;-60
2021/08/17 06:29:50;;;;;;;4.43;1.83;;;;;;;;;;5091874;28;20024;-59
2021/08/17 06:32:16;;;;;;;3.22;1.58;;;;;;;;;;5091594;28;20026;-59
2021/08/17 06:34:41;;;;;;;3.72;1.63;;;;;;;;;;5091658;28;20059;-58
2021/08/17 06:37:07;;;;;;;5.72;1.98;;;;;;;;;;5091866;28;20466;-61
2021/08/17 06:39:32;;;;;;;5.15;1.92;;;;;;;;;;5091904;28;20032;-59
2021/08/17 06:41:57;;;;;;;4.60;1.73;;;;;;;;;;5091823;28;20082;-60
2021/08/17 06:44:22;;;;;;;3.80;1.90;;;;;;;;;;5093871;28;20383;-59
2021/08/17 06:46:47;;;;;;;3.00;1.70;;;;;;;;;;5096127;28;20068;-59
2021/08/17 06:49:13;;;;;;;6.20;1.85;;;;;;;;;;5095945;28;20065;-59
2021/08/17 06:51:38;;;;;;;6.13;1.73;;;;;;;;;;5095696;28;20032;-59
2021/08/17 06:54:04;;;;;;;5.18;1.80;;;;;;;;;;5096051;28;20051;-59
2021/08/17 06:56:29;;;;;;;2.78;1.38;;;;;;;;;;5095631;28;20055;-59
2021/08/17 06:58:54;;;;;;;2.45;1.40;;;;;;;;;;5096031;28;20373;-60
2021/08/17 07:01:19;;;;;;;2.03;1.02;;;;;;;;;;5095466;28;20035;-59
2021/08/17 07:03:44;;;;;;;6.65;1.90;;;;;;;;;;5095567;28;20023;-60
2021/08/17 07:06:10;;;;;;;4.35;1.38;;;;;;;;;;5095638;28;20069;-60
2021/08/17 07:08:35;;;;;;;3.30;1.40;;;;;;;;;;5095572;28;20031;-60
2021/08/17 07:11:00;;;;;;;2.85;1.10;;;;;;;;;;5095434;28;20026;-59
2021/08/17 07:13:26;;;;;;;5.90;1.77;;;;;;;;;;5094656;28;20375;-59
2021/08/17 07:15:51;;;;;;;2.58;1.20;;;;;;;;;;5092638;28;20031;-60
2021/08/17 07:18:16;;;;;;;3.65;1.48;;;;;;;;;;5095153;28;20024;-59
2021/08/17 07:20:42;;;;;;;2.97;1.40;;;;;;;;;;5095275;28;20028;-58
2021/08/17 07:23:07;;;;;;;2.08;1.02;;;;;;;;;;5077456;28;20051;-59
2021/08/17 07:25:33;;;;;;;2.80;0.88;;;;;;;;;;5090119;28;20426;-59
2021/08/17 07:27:58;;;;;;;2.80;1.20;;;;;;;;;;5072852;28;20101;-59
2021/08/17 07:30:23;;;;;;;3.85;1.98;;;;;;;;;;5113132;28;20060;-59
2021/08/17 07:32:48;;;;;;;3.83;1.73;;;;;;;;;;5115382;28;20020;-61
2021/08/17 07:35:17;;;;;;;3.10;1.10;;;;;;;;;;5113648;28;20031;-61
2021/08/17 07:37:42;;;;;;;2.40;0.95;;;;;;;;;;5114993;28;20018;-61
2021/08/17 07:40:08;;;;;;;3.47;1.30;;;;;;;;;;5114805;28;20019;-62
2021/08/17 07:42:34;;;;;;;2.85;0.90;;;;;;;;;;5114948;28;20024;-61
2021/08/17 07:44:59;;;;;;;2.13;1.10;;;;;;;;;;5114091;28;20019;-61
2021/08/17 07:47:25;;;;;;;4.90;0.95;;;;;;;;;;5114830;28;20015;-61
2021/08/17 07:49:50;;;;;;;2.47;1.25;;;;;;;;;;5114732;28;20363;-60
2021/08/17 07:52:15;;;;;;;4.55;0.85;;;;;;;;;;5114850;28;20030;-61
2021/08/17 07:54:40;;;;;;;3.53;0.98;;;;;;;;;;5114255;28;20035;-61
2021/08/17 07:57:06;;;;;;;2.00;1.27;;;;;;;;;;5114270;28;20054;-60
2021/08/17 07:59:31;;;;;;;3.58;1.20;;;;;;;;;;5114916;28;20269;-61
2021/08/17 08:01:56;;;;;;;1.55;0.60;;;;;;;;;;5096434;28;20032;-61
2021/08/17 08:04:21;;;;;;;2.08;0.73;;;;;;;;;;5114306;28;20022;-60
2021/08/17 08:06:47;;;;;;;2.13;1.00;;;;;;;;;;5114776;28;20016;-60
2021/08/17 08:09:12;;;;;;;2.63;0.80;;;;;;;;;;5114506;28;20069;-61
2021/08/17 08:11:37;;;;;;;1.75;0.95;;;;;;;;;;5105938;28;20548;-61
2021/08/17 08:14:02;;;;;;;2.15;1.23;;;;;;;;;;5114345;28;20396;-61
2021/08/17 08:16:28;;;;;;;1.80;0.90;;;;;;;;;;5113757;28;20026;-61
2021/08/17 08:18:53;;;;;;;2.03;0.70;;;;;;;;;;5114238;28;20024;-61
2021/08/17 08:21:18;;;;;;;2.35;0.85;;;;;;;;;;5114390;28;20065;-61
2021/08/17 08:23:44;;;;;;;1.45;0.60;;;;;;;;;;5114119;28;20466;-62
2021/08/17 08:26:09;;;;;;;3.13;0.50;;;;;;;;;;5114262;28;20068;-61
2021/08/17 08:28:34;;;;;;;2.42;0.55;;;;;;;;;;5114116;28;20466;-61
2021/08/17 08:31:00;;;;;;;2.40;0.65;;;;;;;;;;5113471;28;20474;-61
2021/08/17 08:33:25;;;;;;;1.02;0.50;;;;;;;;;;5095485;28;20030;-61
2021/08/17 08:35:50;;;;;;;3.38;1.30;;;;;;;;;;5114355;28;20041;-61
2021/08/17 08:38:15;;;;;;;4.70;1.17;;;;;;;;;;5114156;28;20066;-61
2021/08/17 08:40:43;;;;;;;2.08;1.02;;;;;;;;;;5113874;28;20054;-60
2021/08/17 08:43:09;;;;;;;2.42;0.73;;;;;;;;;;5113518;28;20031;-60
2021/08/17 08:45:35;;;;;;;3.60;0.88;;;;;;;;;;5113756;28;20019;-60
2021/08/17 08:48:00;;;;;;;3.38;0.95;;;;;;;;;;5113743;28;20011;-61
2021/08/17 08:50:26;;;;;;;3.00;0.93;;;;;;;;;;5113840;28;20037;-60
2021/08/17 08:52:51;;;;;;;1.15;0.32;;;;;;;;;;5113927;28;20031;-60
2021/08/17 08:55:16;;;;;;;5.55;1.75;;;;;;;;;;5113848;28;20034;-60
2021/08/17 08:57:42;;;;;;;2.28;0.80;;;;;;;;;;5113697;28;20023;-63
2021/08/17 09:00:09;;;;;;;5.38;0.90;;;;;;;;;;5105695;28;20054;-63
2021/08/17 09:02:34;;;;;;;3.53;0.82;;;;;;;;;;5111830;28;20260;-61
2021/08/17 09:05:00;;;;;;;1.27;0.60;;;;;;;;;;5113578;28;20060;-62
2021/08/17 09:07:36;;;;;;;4.15;0.70;;;;;;;;;;5112929;28;20065;-63
2021/08/17 09:10:04;;;;;;;2.80;1.45;;;;;;;;;;5108497;28;20450;-61
2021/08/17 09:12:36;;;;;;;5.40;1.02;;;;;;;;;;5113420;28;20019;-61
2021/08/17 09:15:10;;;;;;;1.80;0.82;;;;;;;;;;5112980;28;20384;-61
2021/08/17 09:17:35;;;;;;;4.72;0.90;;;;;;;;;;5113544;28;20055;-61
2021/08/17 09:20:01;;;;;;;3.97;1.20;;;;;;;;;;5113213;28;20055;-63
2021/08/17 09:22:26;;;;;;;2.42;0.70;;;;;;;;;;5112783;28;20038;-61
2021/08/17 09:24:59;;;;;;;5.68;1.52;;;;;;;;;;5113337;28;20090;-62
2021/08/17 09:27:26;;;;;;;3.95;0.77;;;;;;;;;;5112481;28;20051;-60
2021/08/17 09:30:08;;;;;;;2.80;0.85;;;;;;;;;;5112975;28;20023;-60
2021/08/17 09:32:33;;;;;;;1.85;0.57;;;;;;;;;;5113722;28;20011;-60
2021/08/17 09:35:00;;;;;;;2.33;0.65;;;;;;;;;;5113170;28;20015;-61
2021/08/17 09:37:29;;;;;;;4.32;0.65;;;;;;;;;;5113154;28;20032;-61
2021/08/17 09:39:55;;;;;;;2.70;1.08;;;;;;;;;;5112681;28;20499;-62
2021/08/17 09:42:22;;;;;;;3.53;0.80;;;;;;;;;;5112472;28;20032;-61
2021/08/17 09:45:01;;;;;;;2.70;0.70;;;;;;;;;;5113155;28;20114;-61
2021/08/17 09:47:27;;;;;;;3.78;1.17;;;;;;;;;;5113035;28;20019;-61
2021/08/17 09:49:52;;;;;;;4.57;0.85;;;;;;;;;;5106640;28;20028;-62
2021/08/17 09:52:18;;;;;;;3.65;0.82;;;;;;;;;;5109649;28;20076;-62
2021/08/17 09:54:44;;;;;;;2.47;0.70;;;;;;;;;;5113167;28;20016;-61
2021/08/17 09:57:10;;;;;;;3.83;1.17;;;;;;;;;;5095458;28;20374;-62
2021/08/17 09:59:37;;;;;;;4.60;1.23;;;;;;;;;;5110742;28;20027;-62
2021/08/17 10:02:02;;;;;;;5.57;2.05;;;;;;;;;;5112351;28;20028;-62
2021/08/17 10:04:28;;;;;;;3.78;1.40;;;;;;;;;;5112699;28;20460;-61
2021/08/17 10:06:56;;;;;;;4.10;1.30;;;;;;;;;;5113261;28;20051;-62
2021/08/17 10:09:23;;;;;;;4.63;0.77;;;;;;;;;;5110425;28;20026;-62
2021/08/17 10:11:48;;;;;;;5.05;1.63;;;;;;;;;;5111962;28;20073;-62
2021/08/17 10:14:14;;;;;;;3.72;1.05;;;;;;;;;;5106460;28;20412;-62
2021/08/17 10:16:41;;;;;;;1.58;0.85;;;;;;;;;;5112138;28;20019;-62
2021/08/17 10:19:07;;;;;;;2.88;0.95;;;;;;;;;;5111914;28;20392;-62
2021/08/17 10:21:32;;;;;;;2.05;1.05;;;;;;;;;;5094607;28;20123;-62
2021/08/17 10:23:58;;;;;;;5.30;1.65;;;;;;;;;;5111981;28;20023;-62
2021/08/17 10:26:31;;;;;;;2.53;0.70;;;;;;;;;;5112016;28;20020;-62
2021/08/17 10:28:56;;;;;;;2.40;0.60;;;;;;;;;;5112246;28;20080;-63
2021/08/17 10:31:23;;;;;;;8.07;1.05;;;;;;;;;;5111988;28;20024;-62
2021/08/17 10:33:52;;;;;;;1.33;0.60;;;;;;;;;;5106339;28;20837;-62
2021/08/17 10:36:36;;;;;;;4.28;0.90;;;;;;;;;;5112211;28;20029;-62
2021/08/17 10:39:07;;;;;;;2.85;1.30;;;;;;;;;;5099468;28;20404;-61
2021/08/17 10:41:33;;;;;;;2.72;0.63;;;;;;;;;;5110017;28;20084;-62
2021/08/17 10:43:58;;;;;;;4.90;1.55;;;;;;;;;;5111927;28;20023;-61
2021/08/17 10:46:42;;;;;;;1.45;0.57;;;;;;;;;;5111821;28;20084;-62
2021/08/17 10:49:22;;;;;;;2.40;0.77;;;;;;;;;;5111487;28;20519;-62
2021/08/17 10:51:52;;;;;;;3.63;1.00;;;;;;;;;;5093456;28;20427;-62
2021/08/17 10:54:17;;;;;;;3.83;0.80;;;;;;;;;;5112320;28;20054;-61
2021/08/17 10:56:43;;;;;;;4.25;1.00;;;;;;;;;;5111681;28;20063;-61
2021/08/17 10:59:09;;;;;;;4.93;0.85;;;;;;;;;;5112063;28;20126;-61
2021/08/17 11:01:42;;;;;;;1.95;0.85;;;;;;;;;;5111544;28;20713;-61
2021/08/17 11:04:17;;;;;;;2.03;0.90;;;;;;;;;;5111846;28;20023;-61
2021/08/17 11:06:47;;;;;;;1.70;0.43;;;;;;;;;;5110716;28;20492;-61
2021/08/17 11:09:16;;;;;;;1.58;0.65;;;;;;;;;;5100997;28;20024;-60
2021/08/17 11:11:45;;;;;;;2.28;0.60;;;;;;;;;;5101913;28;20103;-62
2021/08/17 11:14:12;;;;;;;2.35;0.82;;;;;;;;;;5112020;28;20096;-61
2021/08/17 11:16:56;;;;;;;5.20;0.98;;;;;;;;;;5111143;28;20062;-62
2021/08/17 11:19:23;;;;;;;3.05;1.13;;;;;;;;;;5111170;28;20068;-59
2021/08/17 11:21:49;;;;;;;3.67;1.00;;;;;;;;;;5111904;28;20035;-61
2021/08/17 11:24:21;;;;;;;2.78;0.70;;;;;;;;;;5110540;28;20023;-60
2021/08/17 11:26:57;;;;;;;4.95;1.67;;;;;;;;;;5111148;28;20044;-60
2021/08/17 11:29:25;;;;;;;3.50;1.27;;;;;;;;;;5110486;28;20023;-60
2021/08/17 11:31:51;;;;;;;5.10;1.40;;;;;;;;;;5114422;28;20035;-60
2021/08/17 11:34:20;;;;;;;5.10;1.52;;;;;;;;;;5115023;28;20023;-61
2021/08/17 11:36:50;;;;;;;2.30;0.52;;;;;;;;;;5115382;28;20031;-61
2021/08/17 11:39:26;;;;;;;3.55;1.15;;;;;;;;;;5115122;28;20102;-61
2021/08/17 11:41:51;;;;;;;2.55;0.90;;;;;;;;;;5115091;28;20028;-59
2021/08/17 11:44:17;;;;;;;1.35;0.68;;;;;;;;;;5115730;28;20012;-61
2021/08/17 11:46:42;;;;;;;3.53;1.35;;;;;;;;;;5114989;28;20015;-61
2021/08/17 11:49:19;;;;;;;3.25;1.08;;;;;;;;;;5114841;28;20012;-61
2021/08/17 11:51:45;;;;;;;3.08;1.08;;;;;;;;;;5115011;28;20031;-61
2021/08/17 11:54:15;;;;;;;4.55;1.63;;;;;;;;;;5115001;28;20027;-61
2021/08/17 11:56:41;;;;;;;2.50;1.13;;;;;;;;;;5114971;28;20020;-61
2021/08/17 11:59:06;;;;;;;2.85;1.30;;;;;;;;;;5095948;28;20026;-61
2021/08/17 12:01:31;;;;;;;2.70;0.70;;;;;;;;;;5114538;28;20023;-62
2021/08/17 12:04:07;;;;;;;3.37;0.90;;;;;;;;;;5114309;28;20057;-61
2021/08/17 12:06:32;;;;;;;2.50;1.00;;;;;;;;;;5114618;28;20264;-61
2021/08/17 12:09:18;;;;;;;1.42;0.55;;;;;;;;;;5110234;28;20019;-61
2021/08/17 12:11:58;;;;;;;5.72;2.00;;;;;;;;;;5114161;28;20051;-61
2021/08/17 12:14:23;;;;;;;2.65;1.25;;;;;;;;;;5114592;28;20385;-61
2021/08/17 12:16:52;;;;;;;2.97;1.60;;;;;;;;;;5114401;28;20028;-61
2021/08/17 12:19:18;;;;;;;10.23;1.42;;;;;;;;;;5113267;28;20015;-61
2021/08/17 12:21:43;;;;;;;3.87;1.43;;;;;;;;;;5114428;28;20076;-61
2021/08/17 12:24:09;;;;;;;4.07;1.73;;;;;;;;;;5112634;28;20315;-61
2021/08/17 12:26:34;;;;;;;3.25;0.95;;;;;;;;;;5111697;28;20079;-61
2021/08/17 12:29:10;;;;;;;4.07;1.70;;;;;;;;;;5113046;28;20070;-61
2021/08/17 12:31:37;;;;;;;4.57;1.90;;;;;;;;;;5113968;28;20277;-61
2021/08/17 12:34:05;;;;;;;4.10;1.80;;;;;;;;;;5114152;28;20028;-61
2021/08/17 12:36:48;;;;;;;4.40;1.85;;;;;;;;;;5113155;28;20054;-61
2021/08/17 12:39:17;;;;;;;2.53;1.23;;;;;;;;;;5113273;28;20474;-61
2021/08/17 12:41:52;;;;;;;4.35;0.85;;;;;;;;;;5111473;28;20022;-61
2021/08/17 12:44:21;;;;;;;3.92;1.65;;;;;;;;;;5113575;28;20061;-61
2021/08/17 12:46:55;;;;;;;4.35;1.25;;;;;;;;;;5112318;28;20036;-61
2021/08/17 12:49:21;;;;;;;4.57;1.60;;;;;;;;;;5112926;28;20023;-60
2021/08/17 12:51:46;;;;;;;3.77;1.50;;;;;;;;;;5113295;28;20351;-61
2021/08/17 12:54:11;;;;;;;2.57;1.50;;;;;;;;;;5113186;28;20276;-61
2021/08/17 12:56:36;;;;;;;3.13;1.60;;;;;;;;;;5113049;28;20277;-61
2021/08/17 12:59:04;;;;;;;2.22;0.73;;;;;;;;;;5113576;28;20360;-60
2021/08/17 13:01:29;;;;;;;2.40;1.23;;;;;;;;;;5101632;28;20078;-60
2021/08/17 13:03:56;;;;;;;4.13;1.63;;;;;;;;;;5104064;28;20016;-60
2021/08/17 13:06:21;;;;;;;3.03;1.13;;;;;;;;;;5112927;28;20027;-59
2021/08/17 13:08:46;;;;;;;2.85;1.17;;;;;;;;;;5094111;28;20020;-59
2021/08/17 13:11:11;;;;;;;3.80;1.45;;;;;;;;;;5112340;28;20027;-59
2021/08/17 13:13:37;;;;;;;2.57;1.23;;;;;;;;;;5113331;28;20027;-60
2021/08/17 13:16:02;;;;;;;2.78;1.17;;;;;;;;;;5112527;28;20270;-60
2021/08/17 13:18:27;;;;;;;2.20;0.90;;;;;;;;;;5106541;28;20114;-60
2021/08/17 13:20:54;;;;;;;3.38;1.30;;;;;;;;;;5104437;28;20030;-60
2021/08/17 13:23:19;;;;;;;2.10;0.88;;;;;;;;;;5117969;27;20385;-60
2021/08/17 13:25:45;;;;;;;3.22;1.23;;;;;;;;;;5112610;28;20034;-59
2021/08/17 13:28:10;;;;;;;3.58;0.65;;;;;;;;;;5111739;28;20050;-60
2021/08/17 13:30:35;;;;;;;2.53;1.10;;;;;;;;;;5110211;28;20031;-60
2021/08/17 13:33:00;;;;;;;4.60;1.65;;;;;;;;;;5112410;28;20265;-60
2021/08/17 13:35:26;;;;;;;3.90;1.70;;;;;;;;;;5107651;28;20020;-60
2021/08/17 13:37:51;;;;;;;3.30;1.52;;;;;;;;;;5106965;28;20007;-60
2021/08/17 13:40:16;;;;;;;1.67;1.08;;;;;;;;;;5094312;28;20089;-60
2021/08/17 13:42:42;;;;;;;5.07;1.45;;;;;;;;;;5112359;28;20019;-59
2021/08/17 13:45:07;;;;;;;3.85;1.30;;;;;;;;;;5112010;28;20058;-60
2021/08/17 13:47:32;;;;;;;3.90;2.00;;;;;;;;;;5112401;28;20547;-60
2021/08/17 13:49:58;;;;;;;3.33;1.63;;;;;;;;;;5112350;28;20029;-59
2021/08/17 13:52:23;;;;;;;2.20;1.23;;;;;;;;;;5093748;28;20297;-60
2021/08/17 13:54:48;;;;;;;2.42;1.05;;;;;;;;;;5111376;28;20122;-60
2021/08/17 13:57:13;;;;;;;2.22;1.42;;;;;;;;;;5099716;28;20202;-59
2021/08/17 13:59:39;;;;;;;4.30;2.42;;;;;;;;;;5095404;28;20031;-59
2021/08/17 14:02:04;;;;;;;3.83;1.80;;;;;;;;;;5092993;28;20481;-60
2021/08/17 14:04:30;;;;;;;2.38;1.67;;;;;;;;;;5112243;28;20310;-60
2021/08/17 14:06:55;;;;;;;4.35;1.80;;;;;;;;;;5105863;28;20062;-60
2021/08/17 14:09:20;;;;;;;2.67;1.90;;;;;;;;;;5110884;28;20030;-60
2021/08/17 14:11:45;;;;;;;2.97;1.80;;;;;;;;;;5108214;28;20352;-60
2021/08/17 14:14:11;;;;;;;1.38;1.10;;;;;;;;;;5111886;28;20269;-60
2021/08/17 14:16:38;;;;;;;3.08;2.10;;;;;;;;;;5112297;28;20026;-60
2021/08/17 14:19:03;;;;;;;6.43;1.85;;;;;;;;;;5112342;28;20481;-59
2021/08/17 14:21:28;;;;;;;2.08;1.25;;;;;;;;;;5112244;28;20113;-60
2021/08/17 14:23:54;;;;;;;4.43;1.75;;;;;;;;;;5105829;28;20060;-59
2021/08/17 14:26:24;;;;;;;3.67;1.83;;;;;;;;;;5107413;28;20118;-59
2021/08/17 14:28:50;;;;;;;3.22;1.08;;;;;;;;;;5115954;28;20028;-59
2021/08/17 14:31:15;;;;;;;2.85;1.92;;;;;;;;;;5111191;28;20028;-59
2021/08/17 14:33:41;;;;;;;3.67;1.92;;;;;;;;;;5110911;28;20106;-59
2021/08/17 14:36:07;;;;;;;3.08;1.95;;;;;;;;;;5112065;28;20034;-59
2021/08/17 14:38:32;;;;;;;3.38;2.15;;;;;;;;;;5112142;28;20073;-60
2021/08/17 14:40:57;;;;;;;3.25;1.65;;;;;;;;;;5111620;28;20440;-59
2021/08/17 14:43:22;;;;;;;2.15;1.55;;;;;;;;;;5111502;28;20047;-59
2021/08/17 14:45:48;;;;;;;2.65;1.20;;;;;;;;;;5111205;28;20020;-60
2021/08/17 14:48:13;;;;;;;2.88;1.98;;;;;;;;;;5110618;28;20022;-60
2021/08/17 14:50:39;;;;;;;1.67;1.10;;;;;;;;;;5111115;28;20069;-61
2021/08/17 14:53:05;;;;;;;4.55;2.22;;;;;;;;;;5111225;28;20031;-60
2021/08/17 14:55:30;;;;;;;4.93;2.40;;;;;;;;;;5109207;28;20370;-60
2021/08/17 14:57:56;;;;;;;6.50;2.25;;;;;;;;;;5111667;28;20036;-60
2021/08/17 15:00:22;;;;;;;5.03;2.50;;;;;;;;;;5111579;28;20031;-60
2021/08/17 15:02:47;;;;;;;4.32;2.75;;;;;;;;;;5112158;28;20532;-60